Time;durP1;ratioP1;P1;durP2;ratioP2;P2;SDS_P1;SDS_P2;PMS_P1;PMS_P2;Temp;Humidity;BMP_temperature;BMP_pressure;BME280_temperature;BME280_humidity;BME280_pressure;Samples;Min_cycle;Max_cycle;Signal;HPM_P1;HPM_P2
2022/02/14 00:00:26;;;;;;;64.60;30.10;;;;;;;-2.79;74.06;98442.38;1705692;83;20977;-79
2022/02/14 00:02:54;;;;;;;56.88;27.02;;;;;;;-2.79;74.07;98442.38;1707757;83;20978;-79
2022/02/14 00:05:21;;;;;;;55.30;25.62;;;;;;;-2.82;73.98;98437.11;1707266;83;20958;-79
2022/02/14 00:07:48;;;;;;;57.23;28.90;;;;;;;-2.87;73.76;98439.55;1701969;83;20957;-79
2022/02/14 00:10:15;;;;;;;59.05;27.70;;;;;;;-2.92;73.86;98432.94;1699249;83;21013;-81
2022/02/14 00:12:42;;;;;;;62.30;28.50;;;;;;;-2.92;74.55;98430.34;1696262;83;21036;-82
2022/02/14 00:15:11;;;;;;;58.33;27.37;;;;;;;-2.92;75.28;98431.63;1667837;86;21033;-81
2022/02/14 00:17:39;;;;;;;51.28;26.57;;;;;;;-2.93;75.15;98426.39;1667549;86;21004;-81
2022/02/14 00:20:07;;;;;;;59.10;27.70;;;;;;;-2.99;74.81;98420.59;1667923;86;21450;-81
2022/02/14 00:22:35;;;;;;;53.17;26.50;;;;;;;-2.99;74.79;98424.48;1692271;84;21029;-79
2022/02/14 00:25:05;;;;;;;54.50;25.82;;;;;;;-3.03;74.71;98425.64;1688583;84;21126;-79
2022/02/14 00:27:32;;;;;;;54.30;26.35;;;;;;;-3.06;75.05;98431.18;1687865;84;21180;-81
2022/02/14 00:29:59;;;;;;;55.17;25.72;;;;;;;-3.02;74.85;98428.70;1692769;84;20999;-81
2022/02/14 00:32:26;;;;;;;48.90;25.40;;;;;;;-3.07;74.61;98421.64;1706269;83;21031;-81
2022/02/14 00:34:53;;;;;;;56.08;25.10;;;;;;;-3.10;74.72;98420.67;1711470;83;21033;-78
2022/02/14 00:37:20;;;;;;;48.42;25.25;;;;;;;-3.15;74.87;98417.05;1725096;82;21014;-78
2022/02/14 00:39:46;;;;;;;47.60;22.87;;;;;;;-3.15;75.27;98414.47;1726457;82;21470;-79
2022/02/14 00:42:13;;;;;;;49.90;25.30;;;;;;;-3.15;75.39;98415.76;1715678;82;21044;-79
2022/02/14 00:44:40;;;;;;;52.60;25.35;;;;;;;-3.16;75.32;98414.00;1693130;85;21012;-79
2022/02/14 00:47:07;;;;;;;55.33;26.30;;;;;;;-3.21;75.82;98412.55;1693075;85;21020;-80
2022/02/14 00:49:33;;;;;;;50.45;25.05;;;;;;;-3.23;75.54;98411.22;1693102;85;21485;-79
2022/02/14 00:52:00;;;;;;;57.83;25.57;;;;;;;-3.21;75.25;98408.66;1715333;83;21055;-79
2022/02/14 00:54:26;;;;;;;55.20;25.88;;;;;;;-3.21;75.51;98416.03;1723600;83;21074;-79
2022/02/14 00:56:53;;;;;;;61.88;27.25;;;;;;;-3.20;75.70;98413.03;1723515;83;21036;-79
2022/02/14 00:59:21;;;;;;;51.80;25.60;;;;;;;-3.19;75.36;98411.76;1723610;83;21032;-79
2022/02/14 01:01:49;;;;;;;55.65;24.87;;;;;;;-3.20;75.83;98415.19;1717842;83;21107;-79
2022/02/14 01:04:16;;;;;;;58.08;26.60;;;;;;;-3.20;75.39;98406.55;1693381;85;21079;-79
2022/02/14 01:06:45;;;;;;;50.88;25.00;;;;;;;-3.20;75.25;98411.73;1693127;85;21489;-78
2022/02/14 01:09:12;;;;;;;56.13;25.77;;;;;;;-3.27;75.48;98400.69;1693367;85;21407;-79
2022/02/14 01:11:40;;;;;;;57.17;26.60;;;;;;;-3.26;75.43;98402.04;1693215;85;21024;-79
2022/02/14 01:14:07;;;;;;;53.60;26.15;;;;;;;-3.23;75.37;98399.96;1694681;83;20997;-79
2022/02/14 01:16:34;;;;;;;54.05;26.17;;;;;;;-3.26;75.48;98398.16;1694600;85;21660;-79
2022/02/14 01:19:01;;;;;;;47.38;24.70;;;;;;;-3.27;75.35;98397.69;1694804;84;21029;-79
2022/02/14 01:21:28;;;;;;;56.60;25.72;;;;;;;-3.29;75.54;98395.88;1694650;85;21033;-79
2022/02/14 01:23:54;;;;;;;52.08;25.45;;;;;;;-3.31;75.63;98390.64;1694920;83;21055;-79
2022/02/14 01:26:21;;;;;;;57.78;25.95;;;;;;;-3.32;75.49;98391.05;1693261;85;21001;-79
2022/02/14 01:28:48;;;;;;;49.75;25.12;;;;;;;-3.29;75.40;98393.30;1693095;85;21020;-79
2022/02/14 01:31:14;;;;;;;51.15;25.88;;;;;;;-3.31;75.53;98388.91;1689217;85;21096;-80
2022/02/14 01:33:40;;;;;;;55.92;25.75;;;;;;;-3.31;75.71;98386.32;1678493;85;21466;-79
2022/02/14 01:36:07;;;;;;;56.23;26.23;;;;;;;-3.32;75.60;98387.59;1678358;85;21064;-79
2022/02/14 01:38:34;;;;;;;56.53;25.55;;;;;;;-3.40;76.34;98382.17;1678514;85;21108;-79
2022/02/14 01:41:00;;;;;;;52.70;25.57;;;;;;;-3.43;76.03;98381.16;1678367;85;21415;-78
2022/02/14 01:43:27;;;;;;;51.33;25.43;;;;;;;-3.43;75.89;98378.57;1701571;84;20993;-78
2022/02/14 01:45:53;;;;;;;59.83;26.20;;;;;;;-3.45;75.89;98372.03;1708254;83;21069;-78
2022/02/14 01:48:20;;;;;;;57.65;26.02;;;;;;;-3.45;75.92;98370.74;1708144;84;21013;-78
2022/02/14 01:50:47;;;;;;;56.02;25.12;;;;;;;-3.49;75.80;98368.47;1707737;84;21517;-78
2022/02/14 01:53:16;;;;;;;56.88;26.50;;;;;;;-3.48;75.89;98361.59;1707795;84;21068;-79
2022/02/14 01:55:43;;;;;;;50.90;24.07;;;;;;;-3.49;75.90;98359.84;1708082;84;21039;-79
2022/02/14 01:58:10;;;;;;;56.37;26.35;;;;;;;-3.53;76.08;98359.27;1708438;84;20965;-79
2022/02/14 02:00:37;;;;;;;49.33;24.82;;;;;;;-3.53;76.08;98354.95;1708597;83;21073;-79
2022/02/14 02:03:04;;;;;;;53.42;24.85;;;;;;;-3.51;76.26;98360.19;1685497;83;21443;-79
2022/02/14 02:05:30;;;;;;;52.58;23.22;;;;;;;-3.53;76.50;98349.77;1677131;85;21025;-79
2022/02/14 02:07:57;;;;;;;43.73;22.65;;;;;;;-3.56;76.61;98340.62;1677187;85;21028;-79
2022/02/14 02:10:24;;;;;;;47.30;23.32;;;;;;;-3.60;76.30;98354.30;1683436;85;21028;-79
2022/02/14 02:12:54;;;;;;;50.23;24.20;;;;;;;-3.63;76.57;98344.72;1699307;84;21027;-79
2022/02/14 02:15:24;;;;;;;52.08;23.05;;;;;;;-3.72;76.81;98347.89;1706819;84;21025;-79
2022/02/14 02:17:51;;;;;;;53.10;24.52;;;;;;;-3.79;76.94;98346.34;1707056;84;21007;-79
2022/02/14 02:20:19;;;;;;;53.23;24.05;;;;;;;-3.80;76.59;98341.57;1708104;84;21411;-79
2022/02/14 02:22:49;;;;;;;50.67;23.42;;;;;;;-3.77;76.51;98340.79;1708403;84;21452;-79
2022/02/14 02:25:17;;;;;;;47.48;23.52;;;;;;;-3.80;76.53;98339.37;1707851;84;21076;-78
2022/02/14 02:27:44;;;;;;;49.60;24.57;;;;;;;-3.80;76.55;98335.50;1708380;84;20997;-78
2022/02/14 02:30:17;;;;;;;51.23;24.27;;;;;;;-3.85;76.46;98340.53;1708234;84;21060;-78
2022/02/14 02:32:44;;;;;;;50.38;23.77;;;;;;;-3.90;76.60;98334.33;1719841;82;21064;-78
2022/02/14 02:35:12;;;;;;;49.60;25.32;;;;;;;-3.93;76.56;98332.91;1723723;83;21071;-79
2022/02/14 02:37:39;;;;;;;51.00;24.92;;;;;;;-3.96;76.60;98334.98;1723596;83;21081;-78
2022/02/14 02:40:09;;;;;;;49.35;23.98;;;;;;;-3.95;76.67;98335.45;1723654;83;21468;-78
2022/02/14 02:42:36;;;;;;;53.33;25.32;;;;;;;-3.94;76.82;98332.45;1699411;83;21533;-79
2022/02/14 02:45:04;;;;;;;50.45;24.60;;;;;;;-3.90;76.83;98332.59;1686547;84;21438;-80
2022/02/14 02:47:30;;;;;;;52.00;24.00;;;;;;;-3.90;76.65;98326.13;1686461;85;21036;-79
2022/02/14 02:49:57;;;;;;;50.17;22.87;;;;;;;-3.86;76.71;98321.95;1686394;85;21073;-79
2022/02/14 02:52:23;;;;;;;48.33;22.73;;;;;;;-3.83;76.54;98320.73;1701416;83;21017;-79
2022/02/14 02:54:50;;;;;;;49.30;24.32;;;;;;;-3.91;76.64;98322.21;1721411;83;21471;-79
2022/02/14 02:57:18;;;;;;;46.35;22.35;;;;;;;-3.91;76.40;98308.83;1723694;83;21001;-79
2022/02/14 02:59:44;;;;;;;54.27;22.62;;;;;;;-3.93;76.53;98318.27;1723573;83;21103;-79
2022/02/14 03:02:11;;;;;;;48.92;23.32;;;;;;;-3.94;76.55;98320.41;1723833;83;21497;-79
2022/02/14 03:04:38;;;;;;;44.03;21.70;;;;;;;-3.98;76.42;98328.45;1723661;83;21433;-79
2022/02/14 03:07:05;;;;;;;47.20;22.05;;;;;;;-3.99;76.55;98323.25;1723667;83;21071;-79
2022/02/14 03:09:32;;;;;;;49.42;22.17;;;;;;;-4.00;76.59;98322.77;1723710;83;21059;-79
2022/02/14 03:11:59;;;;;;;50.58;22.40;;;;;;;-4.00;76.77;98322.36;1723695;83;21414;-78
2022/02/14 03:14:25;;;;;;;48.87;21.73;;;;;;;-4.00;77.33;98327.94;1705772;83;21005;-79
2022/02/14 03:16:53;;;;;;;46.55;22.85;;;;;;;-4.02;77.14;98320.55;1693372;85;21047;-79
2022/02/14 03:19:19;;;;;;;45.73;21.48;;;;;;;-4.02;76.89;98329.61;1693663;85;21023;-78
2022/02/14 03:21:46;;;;;;;47.03;21.68;;;;;;;-4.01;77.15;98335.25;1693215;85;21533;-78
2022/02/14 03:24:13;;;;;;;45.52;22.62;;;;;;;-4.04;76.68;98332.55;1693349;85;21505;-78
2022/02/14 03:26:40;;;;;;;48.13;23.47;;;;;;;-4.13;76.54;98327.94;1693321;85;20993;-78
2022/02/14 03:29:06;;;;;;;50.90;24.70;;;;;;;-4.19;76.64;98335.07;1693162;85;21060;-78
2022/02/14 03:31:33;;;;;;;50.58;23.75;;;;;;;-4.22;76.92;98332.39;1690975;85;21411;-78
2022/02/14 03:33:59;;;;;;;51.88;24.87;;;;;;;-4.22;76.98;98335.38;1678711;85;21057;-78
2022/02/14 03:36:26;;;;;;;50.43;23.05;;;;;;;-4.22;76.93;98326.33;1692430;84;21119;-78
2022/02/14 03:38:52;;;;;;;50.28;22.85;;;;;;;-4.29;77.19;98332.98;1708417;84;21052;-78
2022/02/14 03:41:19;;;;;;;46.90;22.95;;;;;;;-4.26;77.31;98335.70;1708317;84;21403;-78
2022/02/14 03:43:47;;;;;;;46.18;20.95;;;;;;;-4.25;78.94;98331.87;1708259;84;21024;-78
2022/02/14 03:46:14;;;;;;;48.40;23.00;;;;;;;-4.28;77.54;98333.48;1708450;84;21028;-78
2022/02/14 03:48:40;;;;;;;41.28;21.17;;;;;;;-4.29;77.37;98322.64;1708264;84;21463;-78
2022/02/14 03:51:07;;;;;;;50.33;22.93;;;;;;;-4.31;77.46;98330.78;1708346;84;21057;-78
2022/02/14 03:53:34;;;;;;;48.15;22.37;;;;;;;-4.32;77.62;98328.59;1708279;83;21001;-78
2022/02/14 03:56:00;;;;;;;48.45;23.07;;;;;;;-4.33;77.47;98318.21;1708157;84;21513;-78
2022/02/14 03:58:27;;;;;;;44.27;21.50;;;;;;;-4.36;77.85;98324.16;1689125;84;20997;-78
2022/02/14 04:00:54;;;;;;;51.13;22.20;;;;;;;-4.38;77.69;98324.10;1678510;85;21049;-78
2022/02/14 04:03:20;;;;;;;55.45;24.32;;;;;;;-4.40;77.74;98317.11;1678501;85;22197;-78
2022/02/14 04:05:48;;;;;;;48.83;23.35;;;;;;;-4.46;77.89;98316.47;1678656;85;20994;-78
2022/02/14 04:08:15;;;;;;;49.42;22.67;;;;;;;-4.46;77.98;98312.59;1678583;85;21021;-78
2022/02/14 04:10:41;;;;;;;47.43;22.00;;;;;;;-4.45;78.03;98312.19;1678415;85;21090;-79
2022/02/14 04:13:08;;;;;;;45.88;22.15;;;;;;;-4.46;77.96;98312.98;1678557;85;21459;-78
2022/02/14 04:15:36;;;;;;;47.08;21.85;;;;;;;-4.46;78.48;98310.00;1704224;84;21044;-79
2022/02/14 04:18:03;;;;;;;48.87;22.15;;;;;;;-4.46;78.11;98302.64;1708183;84;21008;-79
2022/02/14 04:20:29;;;;;;;45.00;22.95;;;;;;;-4.45;78.21;98310.89;1708286;84;21026;-79
2022/02/14 04:22:56;;;;;;;43.50;22.32;;;;;;;-4.42;78.22;98309.29;1708279;84;21489;-79
2022/02/14 04:25:23;;;;;;;47.43;22.85;;;;;;;-4.43;78.09;98309.23;1708096;84;21048;-80
2022/02/14 04:27:50;;;;;;;51.95;22.82;;;;;;;-4.46;78.05;98310.00;1708508;84;21005;-79
2022/02/14 04:30:16;;;;;;;48.15;22.13;;;;;;;-4.44;78.00;98307.47;1708374;84;21488;-79
2022/02/14 04:32:43;;;;;;;46.00;22.73;;;;;;;-4.47;77.99;98306.06;1708129;83;21009;-79
2022/02/14 04:35:10;;;;;;;42.75;20.35;;;;;;;-4.47;78.00;98304.37;1688148;84;21057;-79
2022/02/14 04:37:37;;;;;;;39.45;18.62;;;;;;;-4.45;78.11;98313.48;1678566;85;21438;-81
2022/02/14 04:40:05;;;;;;;35.88;18.85;;;;;;;-4.48;77.94;98310.77;1678455;85;21025;-80
2022/02/14 04:42:32;;;;;;;37.63;17.50;;;;;;;-4.55;78.90;98306.69;1678558;85;20985;-80
2022/02/14 04:44:58;;;;;;;38.70;18.42;;;;;;;-4.56;79.21;98306.63;1678347;85;21494;-80
2022/02/14 04:47:25;;;;;;;44.98;20.15;;;;;;;-4.58;78.50;98300.09;1678592;85;20979;-80
2022/02/14 04:49:52;;;;;;;44.80;19.02;;;;;;;-4.60;78.20;98304.34;1678589;85;21486;-80
2022/02/14 04:52:18;;;;;;;38.63;19.35;;;;;;;-4.59;78.38;98306.50;1678672;85;20981;-78
2022/02/14 04:54:45;;;;;;;39.78;18.35;;;;;;;-4.59;78.00;98305.21;1678541;85;21037;-78
2022/02/14 04:57:12;;;;;;;40.52;18.73;;;;;;;-4.62;78.14;98303.39;1701904;84;21108;-77
2022/02/14 04:59:38;;;;;;;41.98;18.70;;;;;;;-4.63;78.00;98308.11;1708096;83;21005;-77
2022/02/14 05:02:05;;;;;;;37.03;18.37;;;;;;;-4.66;77.94;98303.70;1708271;84;21017;-77
2022/02/14 05:04:31;;;;;;;45.03;20.52;;;;;;;-4.66;78.12;98308.87;1690041;84;21032;-77
2022/02/14 05:06:58;;;;;;;44.75;19.73;;;;;;;-4.72;80.33;98307.77;1625953;87;21038;-79
2022/02/14 05:09:24;;;;;;;37.88;19.32;;;;;;;-4.78;79.23;98301.95;1620387;88;21065;-79
2022/02/14 05:11:53;;;;;;;43.10;19.73;;;;;;;-4.77;78.97;98307.62;1626138;87;21001;-79
2022/02/14 05:14:20;;;;;;;48.10;21.65;;;;;;;-4.72;78.88;98308.66;1627810;87;21017;-79
2022/02/14 05:16:47;;;;;;;44.90;20.60;;;;;;;-4.69;78.61;98312.63;1680177;85;21015;-79
2022/02/14 05:19:13;;;;;;;42.48;21.17;;;;;;;-4.71;78.39;98305.25;1679855;85;21028;-78
2022/02/14 05:21:40;;;;;;;47.93;22.20;;;;;;;-4.67;78.40;98315.28;1680069;85;21008;-78
2022/02/14 05:24:06;;;;;;;47.13;21.85;;;;;;;-4.67;78.40;98311.00;1679894;85;21468;-78
2022/02/14 05:26:33;;;;;;;39.42;21.55;;;;;;;-4.70;78.36;98317.78;1679998;85;21000;-78
2022/02/14 05:29:00;;;;;;;43.00;21.10;;;;;;;-4.75;78.32;98311.13;1679856;85;21457;-78
2022/02/14 05:31:27;;;;;;;46.37;22.10;;;;;;;-4.80;78.22;98315.25;1679895;85;21068;-78
2022/02/14 05:33:54;;;;;;;46.35;21.77;;;;;;;-4.83;78.50;98324.17;1695480;83;21039;-79
2022/02/14 05:36:22;;;;;;;42.03;22.05;;;;;;;-4.80;78.67;98326.89;1696506;84;21481;-78
2022/02/14 05:38:49;;;;;;;44.98;22.98;;;;;;;-4.80;78.48;98326.89;1696592;84;21434;-78
2022/02/14 05:41:16;;;;;;;43.30;22.22;;;;;;;-4.81;78.38;98332.89;1696835;83;21023;-79
2022/02/14 05:43:42;;;;;;;47.05;22.73;;;;;;;-4.82;78.56;98322.95;1721137;83;20980;-78
2022/02/14 05:46:16;;;;;;;41.48;22.25;;;;;;;-4.80;78.68;98335.94;1727168;83;21405;-79
2022/02/14 05:48:45;;;;;;;41.28;20.23;;;;;;;-4.73;78.82;98338.34;1726131;83;21379;-79
2022/02/14 05:51:14;;;;;;;45.85;21.00;;;;;;;-4.71;78.68;98336.68;1725575;83;21052;-79
2022/02/14 05:53:42;;;;;;;41.70;20.55;;;;;;;-4.69;78.62;98331.17;1724752;83;21040;-79
2022/02/14 05:56:09;;;;;;;46.77;21.68;;;;;;;-4.70;78.45;98331.57;1724867;83;21047;-79
2022/02/14 05:58:36;;;;;;;43.40;21.23;;;;;;;-4.67;78.60;98332.98;1725029;83;21091;-79
2022/02/14 06:01:03;;;;;;;41.23;20.77;;;;;;;-4.65;78.80;98336.50;1724937;83;21060;-79
2022/02/14 06:03:30;;;;;;;48.05;22.95;;;;;;;-4.61;78.76;98330.16;1724993;83;21051;-79
2022/02/14 06:05:56;;;;;;;52.27;25.95;;;;;;;-4.62;79.51;98331.84;1724945;83;21020;-79
2022/02/14 06:08:23;;;;;;;44.40;21.07;;;;;;;-4.62;79.46;98334.86;1725183;83;21020;-79
2022/02/14 06:10:49;;;;;;;40.58;19.75;;;;;;;-4.61;79.20;98334.03;1724960;83;21012;-79
2022/02/14 06:13:17;;;;;;;41.30;20.30;;;;;;;-4.62;78.86;98329.69;1695639;84;21028;-79
2022/02/14 06:15:44;;;;;;;40.12;19.75;;;;;;;-4.62;78.76;98330.55;1685212;85;21024;-79
2022/02/14 06:18:11;;;;;;;41.55;19.92;;;;;;;-4.62;79.13;98334.44;1652873;87;21053;-79
2022/02/14 06:20:38;;;;;;;45.73;21.07;;;;;;;-4.65;79.06;98338.22;1652945;86;21001;-78
2022/02/14 06:23:05;;;;;;;45.25;21.30;;;;;;;-4.67;79.06;98339.85;1652957;87;21014;-78
2022/02/14 06:25:31;;;;;;;41.55;19.90;;;;;;;-4.64;79.19;98339.98;1653352;85;21407;-79
2022/02/14 06:27:58;;;;;;;43.23;20.40;;;;;;;-4.60;79.71;98339.27;1653029;87;20974;-79
2022/02/14 06:30:25;;;;;;;41.65;19.40;;;;;;;-4.55;79.43;98342.01;1652753;87;21018;-79
2022/02/14 06:32:53;;;;;;;42.67;20.62;;;;;;;-4.52;79.16;98342.13;1653258;87;21045;-79
2022/02/14 06:35:22;;;;;;;40.45;19.20;;;;;;;-4.49;79.42;98339.63;1654101;87;20994;-79
2022/02/14 06:37:49;;;;;;;47.05;19.98;;;;;;;-4.43;79.20;98341.57;1660568;85;21016;-79
2022/02/14 06:40:17;;;;;;;43.40;20.77;;;;;;;-4.41;79.01;98338.61;1689359;84;21454;-78
2022/02/14 06:42:50;;;;;;;40.80;19.73;;;;;;;-4.37;79.34;98340.09;1689443;84;21027;-78
2022/02/14 06:45:18;;;;;;;37.80;18.73;;;;;;;-4.36;79.24;98342.27;1689610;84;21082;-78
2022/02/14 06:47:45;;;;;;;42.15;19.07;;;;;;;-4.37;79.29;98341.38;1723709;83;21040;-78
2022/02/14 06:50:12;;;;;;;43.28;19.77;;;;;;;-4.38;79.44;98344.80;1723861;82;21032;-79
2022/02/14 06:52:39;;;;;;;40.83;18.75;;;;;;;-4.33;79.38;98343.66;1717771;82;21022;-78
2022/02/14 06:55:09;;;;;;;44.98;20.35;;;;;;;-4.26;79.45;98343.06;1725926;82;21019;-79
2022/02/14 06:57:36;;;;;;;44.67;21.55;;;;;;;-4.19;79.22;98336.80;1726599;82;21119;-79
2022/02/14 07:00:10;;;;;;;42.10;20.75;;;;;;;-4.16;78.96;98335.19;1726948;82;21008;-78
2022/02/14 07:02:38;;;;;;;50.00;20.85;;;;;;;-4.09;79.18;98340.16;1709272;83;21556;-78
2022/02/14 07:05:08;;;;;;;42.67;19.52;;;;;;;-4.03;79.39;98337.78;1707786;83;21000;-78
2022/02/14 07:07:35;;;;;;;44.30;20.35;;;;;;;-3.98;79.22;98340.11;1714614;83;21020;-78
2022/02/14 07:10:02;;;;;;;52.00;22.35;;;;;;;-3.95;78.79;98339.33;1709756;83;20973;-78
2022/02/14 07:12:29;;;;;;;48.55;21.15;;;;;;;-3.88;78.91;98343.91;1701421;83;20985;-78
2022/02/14 07:14:59;;;;;;;47.25;22.02;;;;;;;-3.81;78.91;98342.41;1723732;83;21458;-78
2022/02/14 07:17:26;;;;;;;46.20;21.93;;;;;;;-3.76;78.64;98333.08;1723604;83;21056;-78
2022/02/14 07:19:52;;;;;;;45.88;23.10;;;;;;;-3.71;78.65;98332.81;1723696;83;21016;-78
2022/02/14 07:22:19;;;;;;;41.75;20.12;;;;;;;-3.65;78.49;98336.43;1724083;83;21059;-78
2022/02/14 07:24:48;;;;;;;45.78;21.48;;;;;;;-3.60;78.60;98335.76;1720197;83;21426;-77
2022/02/14 07:27:15;;;;;;;48.83;21.62;;;;;;;-3.51;78.52;98332.98;1723519;83;21036;-77
2022/02/14 07:29:42;;;;;;;47.73;21.57;;;;;;;-3.45;78.40;98332.77;1723589;83;21047;-78
2022/02/14 07:32:09;;;;;;;48.80;22.10;;;;;;;-3.36;78.18;98332.59;1710850;83;20971;-78
2022/02/14 07:34:36;;;;;;;44.42;21.82;;;;;;;-3.31;78.19;98325.84;1674766;83;21032;-78
2022/02/14 07:37:03;;;;;;;44.75;21.73;;;;;;;-3.23;78.08;98324.78;1667940;86;21043;-78
2022/02/14 07:39:31;;;;;;;47.40;23.00;;;;;;;-3.14;77.95;98325.06;1667982;86;21024;-78
2022/02/14 07:41:59;;;;;;;45.90;23.10;;;;;;;-3.04;78.04;98319.73;1667869;86;21069;-78
2022/02/14 07:44:27;;;;;;;46.48;24.18;;;;;;;-2.95;77.88;98317.84;1668806;84;20992;-78
2022/02/14 07:46:54;;;;;;;42.98;21.73;;;;;;;-2.85;77.96;98319.88;1626038;87;21454;-78
2022/02/14 07:49:23;;;;;;;45.48;22.80;;;;;;;-2.75;77.80;98317.55;1620490;88;21009;-78
2022/02/14 07:51:49;;;;;;;43.33;23.62;;;;;;;-2.67;77.63;98316.92;1626101;88;21024;-78
2022/02/14 07:54:16;;;;;;;48.48;24.15;;;;;;;-2.61;77.52;98316.23;1633357;86;21093;-79
2022/02/14 07:56:45;;;;;;;48.78;24.95;;;;;;;-2.53;77.41;98321.63;1633469;87;21015;-78
2022/02/14 07:59:11;;;;;;;51.63;24.35;;;;;;;-2.48;77.69;98313.55;1683814;84;20989;-78
2022/02/14 08:01:40;;;;;;;50.20;25.62;;;;;;;-2.40;77.50;98310.73;1688324;84;21015;-78
2022/02/14 08:04:07;;;;;;;46.65;24.47;;;;;;;-2.28;77.27;98310.19;1691880;84;21047;-78
2022/02/14 08:06:37;;;;;;;49.63;24.00;;;;;;;-2.20;77.14;98311.69;1676084;84;21167;-78
2022/02/14 08:09:07;;;;;;;46.05;24.37;;;;;;;-2.08;77.06;98304.64;1694163;84;21013;-77
2022/02/14 08:11:34;;;;;;;50.63;25.95;;;;;;;-1.96;76.84;98300.63;1697520;84;20945;-79
2022/02/14 08:14:01;;;;;;;45.65;24.57;;;;;;;-1.88;76.71;98301.67;1694098;84;21019;-79
2022/02/14 08:16:27;;;;;;;49.65;26.50;;;;;;;-1.78;76.65;98295.00;1696886;84;21550;-78
2022/02/14 08:18:55;;;;;;;59.08;27.15;;;;;;;-1.66;76.53;98304.38;1703005;84;21075;-79
2022/02/14 08:21:23;;;;;;;58.65;27.85;;;;;;;-1.57;75.83;98300.25;1690341;84;21059;-79
2022/02/14 08:23:52;;;;;;;55.78;29.23;;;;;;;-1.47;76.19;98296.62;1685682;84;21000;-80
2022/02/14 08:26:20;;;;;;;63.83;30.05;;;;;;;-1.36;76.19;98292.94;1689508;84;21399;-79
2022/02/14 08:28:47;;;;;;;56.02;29.80;;;;;;;-1.24;76.13;98283.69;1680054;84;20985;-80
2022/02/14 08:31:13;;;;;;;55.92;28.95;;;;;;;-1.12;75.55;98285.68;1687380;84;21029;-81
2022/02/14 08:33:40;;;;;;;58.13;29.92;;;;;;;-1.03;75.39;98279.37;1714323;83;21430;-80
2022/02/14 08:36:14;;;;;;;70.60;32.00;;;;;;;-0.95;75.28;98279.09;1724136;83;21043;-81
2022/02/14 08:38:40;;;;;;;70.80;34.38;;;;;;;-0.85;74.89;98278.88;1698681;83;20968;-80
2022/02/14 08:41:07;;;;;;;71.25;33.53;;;;;;;-0.74;74.33;98275.62;1694464;85;21087;-81
2022/02/14 08:43:34;;;;;;;72.97;35.55;;;;;;;-0.66;74.62;98271.45;1699437;83;21004;-82
2022/02/14 08:46:00;;;;;;;77.58;34.15;;;;;;;-0.57;74.04;98276.84;1715277;83;20972;-79
2022/02/14 08:48:30;;;;;;;67.58;32.13;;;;;;;-0.50;73.75;98265.23;1714714;82;21479;-79
2022/02/14 08:50:59;;;;;;;58.95;32.00;;;;;;;-0.45;72.36;98264.90;1713937;83;21037;-80
2022/02/14 08:53:31;;;;;;;68.33;32.65;;;;;;;-0.36;73.35;98267.67;1721636;82;21070;-83
2022/02/14 08:55:56;;;;;;;83.42;36.73;;;;;;;-0.29;73.53;98266.07;1733952;81;21096;-81
2022/02/14 08:58:25;;;;;;;83.00;37.78;;;;;;;-0.20;72.44;98266.20;1719843;83;21281;-79
2022/02/14 09:00:51;;;;;;;85.03;35.98;;;;;;;-0.11;72.19;98256.81;1721137;82;21040;-80
2022/02/14 09:03:18;;;;;;;73.72;34.10;;;;;;;-0.04;71.93;98266.50;1704925;83;20977;-80
2022/02/14 09:05:45;;;;;;;64.85;33.92;;;;;;;0.04;72.02;98259.67;1708569;83;21020;-78
2022/02/14 09:08:11;;;;;;;66.77;33.35;;;;;;;0.13;72.30;98257.22;1699311;83;21433;-82
2022/02/14 09:10:38;;;;;;;61.53;31.48;;;;;;;0.21;72.31;98250.83;1709321;83;21020;-82
2022/02/14 09:13:04;;;;;;;65.83;31.70;;;;;;;0.30;71.57;98251.84;1721439;83;21490;-80
2022/02/14 09:15:31;;;;;;;61.92;30.60;;;;;;;0.36;71.16;98255.84;1721110;83;21039;-79
2022/02/14 09:17:58;;;;;;;56.77;29.27;;;;;;;0.41;71.31;98251.56;1694454;85;21079;-79
2022/02/14 09:20:26;;;;;;;56.08;31.23;;;;;;;0.50;71.09;98247.80;1694396;85;21036;-79
2022/02/14 09:22:54;;;;;;;57.23;29.40;;;;;;;0.59;71.05;98253.60;1694569;84;21059;-82
2022/02/14 09:25:23;;;;;;;54.98;28.83;;;;;;;0.68;71.04;98249.34;1694540;85;21048;-81
2022/02/14 09:27:50;;;;;;;55.90;29.82;;;;;;;0.74;70.15;98248.13;1694525;84;21004;-81
2022/02/14 09:30:17;;;;;;;60.85;31.73;;;;;;;0.84;70.57;98245.23;1694288;84;21078;-80
2022/02/14 09:32:45;;;;;;;60.98;30.43;;;;;;;0.90;68.88;98238.36;1701011;82;21648;-81
2022/02/14 09:35:12;;;;;;;54.60;30.65;;;;;;;0.99;69.87;98240.20;1715897;83;22059;-80
2022/02/14 09:37:39;;;;;;;55.38;30.65;;;;;;;1.08;70.16;98235.52;1707716;83;21489;-81
2022/02/14 09:40:07;;;;;;;54.40;31.15;;;;;;;1.16;69.46;98233.03;1696319;84;21063;-78
2022/02/14 09:42:36;;;;;;;62.83;29.80;;;;;;;1.25;68.47;98234.87;1697619;84;21008;-78
2022/02/14 09:45:02;;;;;;;54.10;30.27;;;;;;;1.31;68.51;98233.63;1697272;84;21112;-79
2022/02/14 09:47:30;;;;;;;59.80;30.65;;;;;;;1.40;68.52;98232.84;1697198;84;21004;-82
2022/02/14 09:49:57;;;;;;;60.43;31.15;;;;;;;1.45;67.80;98231.16;1696868;84;21735;-79
2022/02/14 09:52:24;;;;;;;60.08;31.90;;;;;;;1.54;68.19;98228.64;1703130;83;21401;-80
2022/02/14 09:54:50;;;;;;;61.20;31.93;;;;;;;1.62;66.99;98227.41;1725130;83;21075;-79
2022/02/14 09:57:18;;;;;;;65.30;33.40;;;;;;;1.69;67.62;98224.44;1697360;84;20986;-81
2022/02/14 09:59:44;;;;;;;61.70;33.18;;;;;;;1.78;67.47;98214.52;1697402;84;21028;-78
2022/02/14 10:02:25;;;;;;;68.50;34.95;;;;;;;1.89;67.55;98216.80;1716433;83;21014;-79
2022/02/14 10:05:05;;;;;;;58.52;32.93;;;;;;;1.98;67.64;98205.11;1703021;83;21053;-78
2022/02/14 10:07:50;;;;;;;57.83;32.80;;;;;;;2.09;67.78;98201.29;1720920;83;21004;-79
2022/02/14 10:10:25;;;;;;;57.20;32.70;;;;;;;2.22;68.00;98191.80;1725627;83;21099;-78
2022/02/14 10:12:55;;;;;;;58.08;32.10;;;;;;;2.35;67.32;98191.44;1726240;83;21032;-76
2022/02/14 10:15:24;;;;;;;51.98;29.85;;;;;;;2.47;67.33;98183.22;1725928;83;21051;-77
2022/02/14 10:18:01;;;;;;;54.10;29.82;;;;;;;2.62;67.42;98181.14;1719878;83;21079;-77
2022/02/14 10:20:31;;;;;;;54.98;28.95;;;;;;;2.69;65.01;98171.13;1667892;84;20970;-78
2022/02/14 10:23:06;;;;;;;48.38;26.20;;;;;;;2.76;64.48;98172.03;1653492;86;21068;-78
2022/02/14 10:25:42;;;;;;;44.15;23.80;;;;;;;2.87;65.23;98168.16;1635524;87;21188;-79
2022/02/14 10:28:22;;;;;;;43.85;24.70;;;;;;;2.96;63.69;98160.77;1653308;87;21490;-78
2022/02/14 10:31:05;;;;;;;42.27;24.50;;;;;;;3.05;63.13;98155.57;1679683;84;21365;-80
2022/02/14 10:33:58;;;;;;;50.78;24.87;;;;;;;3.20;65.20;98150.80;1699832;84;21019;-78
2022/02/14 10:36:32;;;;;;;39.23;22.17;;;;;;;3.36;64.53;98147.78;1682394;84;21048;-78
2022/02/14 10:39:14;;;;;;;;;;;;;;;3.50;63.64;98143.89;1676594;84;21100;-79
2022/02/14 10:41:44;;;;;;;32.30;19.90;;;;;;;3.60;61.65;98142.56;1673065;84;20438;-79
2022/02/14 10:47:19;;;;;;;32.85;17.37;;;;;;;3.79;62.21;98131.22;1697656;84;21466;-79
2022/02/14 10:50:00;;;;;;;34.55;17.52;;;;;;;3.98;60.89;98118.10;1686267;85;21045;-80
2022/02/14 10:52:46;;;;;;;33.67;17.60;;;;;;;4.11;61.24;98115.02;1732812;82;21445;-79
2022/02/14 10:55:30;;;;;;;29.30;14.85;;;;;;;4.25;61.60;98115.02;1723005;83;20972;-79
2022/02/14 10:57:59;;;;;;;24.77;14.38;;;;;;;4.42;58.80;98108.41;1723083;83;21044;-79
2022/02/14 11:00:31;;;;;;;26.45;13.60;;;;;;;5.10;61.51;98105.04;1723246;83;21059;-78
2022/02/14 11:03:06;;;;;;;22.37;11.95;;;;;;;6.29;56.00;98093.17;1712516;83;21060;-78
2022/02/14 11:05:29;;;;;;;18.52;12.20;;;;;;;7.60;58.13;98087.04;1705877;83;21119;-81
2022/02/14 11:07:57;;;;;;;18.25;11.15;;;;;;;8.78;51.20;98089.35;1702887;83;21067;-77
2022/02/14 11:10:23;;;;;;;18.73;11.57;;;;;;;9.69;46.93;98071.45;1705974;83;21414;-78
2022/02/14 11:12:56;;;;;;;17.67;11.12;;;;;;;10.40;43.52;98072.27;1713793;83;21044;-80
2022/02/14 11:15:27;;;;;;;20.82;11.73;;;;;;;11.02;46.49;98059.48;1723136;83;21000;-81
2022/02/14 11:18:03;;;;;;;18.05;12.15;;;;;;;11.96;42.23;98058.24;1722251;83;21064;-76
2022/02/14 11:20:30;;;;;;;32.00;27.80;;;;;;;12.77;40.51;98063.41;1722152;83;20996;-77
2022/02/14 11:23:00;;;;;;;20.02;12.13;;;;;;;13.26;38.80;98054.46;1710407;83;21337;-75
2022/02/14 11:25:50;;;;;;;17.55;11.73;;;;;;;13.85;37.52;98042.79;1721128;83;21425;-74